sensor_id;sensor_type;location;lat;lon;timestamp;pressure;altitude;pressure_sealevel;temperature;humidity
29359;BME280;16347;53.232;6.556;2023-04-01T00:00:52;99175.09;;;14.14;69.93
29359;BME280;16347;53.232;6.556;2023-04-01T00:03:22;99169.63;;;14.14;70.45
29359;BME280;16347;53.232;6.556;2023-04-01T00:05:50;99166.06;;;14.14;70.18
29359;BME280;16347;53.232;6.556;2023-04-01T00:08:19;99168.56;;;14.15;70.00
29359;BME280;16347;53.232;6.556;2023-04-01T00:10:47;99169.41;;;14.16;70.13
29359;BME280;16347;53.232;6.556;2023-04-01T00:13:16;99165.44;;;14.12;70.22
29359;BME280;16347;53.232;6.556;2023-04-01T00:15:45;99163.31;;;14.14;70.31
29359;BME280;16347;53.232;6.556;2023-04-01T00:18:14;99161.81;;;14.18;70.19
29359;BME280;16347;53.232;6.556;2023-04-01T00:20:44;99168.13;;;14.18;70.06
29359;BME280;16347;53.232;6.556;2023-04-01T00:23:14;99171.91;;;14.17;70.09
29359;BME280;16347;53.232;6.556;2023-04-01T00:25:43;99165.84;;;14.15;70.24
29359;BME280;16347;53.232;6.556;2023-04-01T00:28:12;99170.84;;;14.18;70.04
29359;BME280;16347;53.232;6.556;2023-04-01T00:30:40;99172.16;;;14.16;70.05
29359;BME280;16347;53.232;6.556;2023-04-01T00:33:10;99173.84;;;14.10;69.90
29359;BME280;16347;53.232;6.556;2023-04-01T00:35:38;99169.63;;;14.14;70.02
29359;BME280;16347;53.232;6.556;2023-04-01T00:38:07;99172.34;;;14.14;70.26
29359;BME280;16347;53.232;6.556;2023-04-01T00:40:37;99166.06;;;14.14;70.20
29359;BME280;16347;53.232;6.556;2023-04-01T00:43:11;99162.06;;;14.16;70.17
29359;BME280;16347;53.232;6.556;2023-04-01T00:45:41;99167.97;;;14.13;69.99
29359;BME280;16347;53.232;6.556;2023-04-01T00:48:16;99170.72;;;14.13;70.04
29359;BME280;16347;53.232;6.556;2023-04-01T00:50:48;99171.50;;;14.14;69.96
29359;BME280;16347;53.232;6.556;2023-04-01T00:53:19;99166.06;;;14.14;70.16
29359;BME280;16347;53.232;6.556;2023-04-01T00:55:51;99164.59;;;14.11;70.20
29359;BME280;16347;53.232;6.556;2023-04-01T00:58:21;99170.59;;;14.26;69.77
29359;BME280;16347;53.232;6.556;2023-04-01T01:00:52;99167.13;;;14.13;69.50
29359;BME280;16347;53.232;6.556;2023-04-01T01:03:21;99163.38;;;14.07;69.64
29359;BME280;16347;53.232;6.556;2023-04-01T01:06:02;99166.72;;;14.09;70.14
29359;BME280;16347;53.232;6.556;2023-04-01T01:08:46;99173.25;;;14.08;70.21
29359;BME280;16347;53.232;6.556;2023-04-01T01:11:31;99165.94;;;14.02;70.19
29359;BME280;16347;53.232;6.556;2023-04-01T01:14:19;99173.91;;;14.04;70.50
29359;BME280;16347;53.232;6.556;2023-04-01T01:16:54;99172.66;;;14.06;70.48
29359;BME280;16347;53.232;6.556;2023-04-01T01:19:45;99170.75;;;14.07;70.55
29359;BME280;16347;53.232;6.556;2023-04-01T01:25:21;99175.59;;;14.05;70.39
29359;BME280;16347;53.232;6.556;2023-04-01T01:28:01;99180.84;;;14.06;70.43
29359;BME280;16347;53.232;6.556;2023-04-01T01:30:42;99181.44;;;14.08;70.58
29359;BME280;16347;53.232;6.556;2023-04-01T01:33:24;99179.31;;;14.10;70.28
29359;BME280;16347;53.232;6.556;2023-04-01T01:36:02;99185.22;;;14.07;69.99
29359;BME280;16347;53.232;6.556;2023-04-01T01:38:34;99184.63;;;14.05;70.41
29359;BME280;16347;53.232;6.556;2023-04-01T01:41:05;99181.91;;;14.05;70.17
29359;BME280;16347;53.232;6.556;2023-04-01T01:43:37;99181.69;;;14.07;69.82
29359;BME280;16347;53.232;6.556;2023-04-01T01:46:10;99180.22;;;14.04;69.90
29359;BME280;16347;53.232;6.556;2023-04-01T01:48:42;99184.44;;;14.00;69.94
29359;BME280;16347;53.232;6.556;2023-04-01T01:51:14;99186.97;;;14.02;70.46
29359;BME280;16347;53.232;6.556;2023-04-01T01:53:42;99190.97;;;13.99;70.39
29359;BME280;16347;53.232;6.556;2023-04-01T01:56:11;99186.53;;;14.05;70.15
29359;BME280;16347;53.232;6.556;2023-04-01T01:58:47;99192.81;;;14.05;70.43
29359;BME280;16347;53.232;6.556;2023-04-01T02:01:20;99186.97;;;14.02;69.78
29359;BME280;16347;53.232;6.556;2023-04-01T02:03:52;99194.75;;;13.98;69.95
29359;BME280;16347;53.232;6.556;2023-04-01T02:06:23;99193.31;;;13.96;70.04
29359;BME280;16347;53.232;6.556;2023-04-01T02:08:55;99196.50;;;13.93;70.33
29359;BME280;16347;53.232;6.556;2023-04-01T02:11:29;99198.59;;;13.91;70.88
29359;BME280;16347;53.232;6.556;2023-04-01T02:14:01;99202.38;;;13.96;70.83
29359;BME280;16347;53.232;6.556;2023-04-01T02:16:34;99206.31;;;14.00;70.98
29359;BME280;16347;53.232;6.556;2023-04-01T02:19:04;99200.84;;;14.00;70.80
29359;BME280;16347;53.232;6.556;2023-04-01T02:21:37;99207.44;;;13.93;70.36
29359;BME280;16347;53.232;6.556;2023-04-01T02:24:08;99210.75;;;13.95;70.40
29359;BME280;16347;53.232;6.556;2023-04-01T02:26:38;99205.69;;;13.98;70.61
29359;BME280;16347;53.232;6.556;2023-04-01T02:29:07;99212.44;;;13.96;70.44
29359;BME280;16347;53.232;6.556;2023-04-01T02:31:37;99211.59;;;13.95;70.55
29359;BME280;16347;53.232;6.556;2023-04-01T02:34:06;99206.75;;;13.97;70.23
29359;BME280;16347;53.232;6.556;2023-04-01T02:36:36;99214.13;;;13.97;70.30
29359;BME280;16347;53.232;6.556;2023-04-01T02:39:05;99213.91;;;13.98;70.21
29359;BME280;16347;53.232;6.556;2023-04-01T02:41:39;99211.56;;;14.02;70.66
29359;BME280;16347;53.232;6.556;2023-04-01T02:44:07;99213.06;;;13.98;70.27
29359;BME280;16347;53.232;6.556;2023-04-01T02:46:36;99216.41;;;14.00;70.39
29359;BME280;16347;53.232;6.556;2023-04-01T02:49:05;99215.59;;;13.99;70.63
29359;BME280;16347;53.232;6.556;2023-04-01T02:51:33;99219.97;;;14.00;70.56
29359;BME280;16347;53.232;6.556;2023-04-01T02:54:03;99228.00;;;13.95;70.47
29359;BME280;16347;53.232;6.556;2023-04-01T02:56:31;99222.19;;;13.85;70.12
29359;BME280;16347;53.232;6.556;2023-04-01T02:58:59;99229.69;;;13.96;70.63
29359;BME280;16347;53.232;6.556;2023-04-01T03:01:27;99232.41;;;13.96;70.42
29359;BME280;16347;53.232;6.556;2023-04-01T03:03:56;99237.25;;;13.94;70.36
29359;BME280;16347;53.232;6.556;2023-04-01T03:06:24;99237.69;;;13.91;70.36
29359;BME280;16347;53.232;6.556;2023-04-01T03:08:52;99240.66;;;13.90;70.41
29359;BME280;16347;53.232;6.556;2023-04-01T03:11:22;99239.38;;;13.92;70.60
29359;BME280;16347;53.232;6.556;2023-04-01T03:13:53;99236.63;;;13.92;70.65
29359;BME280;16347;53.232;6.556;2023-04-01T03:16:21;99245.03;;;13.91;70.43
29359;BME280;16347;53.232;6.556;2023-04-01T03:18:50;99245.28;;;13.89;70.62
29359;BME280;16347;53.232;6.556;2023-04-01T03:21:21;99249.50;;;13.85;70.40
29359;BME280;16347;53.232;6.556;2023-04-01T03:23:50;99252.63;;;13.88;70.31
29359;BME280;16347;53.232;6.556;2023-04-01T03:26:18;99252.03;;;13.86;70.55
29359;BME280;16347;53.232;6.556;2023-04-01T03:28:48;99247.66;;;13.79;70.38
29359;BME280;16347;53.232;6.556;2023-04-01T03:31:16;99257.69;;;13.85;70.44
29359;BME280;16347;53.232;6.556;2023-04-01T03:33:51;99253.72;;;13.81;70.25
29359;BME280;16347;53.232;6.556;2023-04-01T03:36:19;99260.22;;;13.80;70.54
29359;BME280;16347;53.232;6.556;2023-04-01T03:38:47;99255.59;;;13.80;70.22
29359;BME280;16347;53.232;6.556;2023-04-01T03:41:22;99257.94;;;13.77;70.52
29359;BME280;16347;53.232;6.556;2023-04-01T03:43:53;99269.28;;;13.74;70.93
29359;BME280;16347;53.232;6.556;2023-04-01T03:46:21;99263.84;;;13.74;70.98
29359;BME280;16347;53.232;6.556;2023-04-01T03:48:49;99264.69;;;13.74;70.77
29359;BME280;16347;53.232;6.556;2023-04-01T03:51:18;99272.88;;;13.74;70.78
29359;BME280;16347;53.232;6.556;2023-04-01T03:53:46;99276.25;;;13.76;70.71
29359;BME280;16347;53.232;6.556;2023-04-01T03:56:15;99277.06;;;13.77;70.85
29359;BME280;16347;53.232;6.556;2023-04-01T03:58:44;99275.41;;;13.76;70.76
29359;BME280;16347;53.232;6.556;2023-04-01T04:01:15;99282.31;;;13.78;70.47
29359;BME280;16347;53.232;6.556;2023-04-01T04:03:44;99278.75;;;13.78;70.71
29359;BME280;16347;53.232;6.556;2023-04-01T04:06:13;99283.59;;;13.76;70.79
29359;BME280;16347;53.232;6.556;2023-04-01T04:08:42;99285.69;;;13.74;70.40
29359;BME280;16347;53.232;6.556;2023-04-01T04:11:12;99288.41;;;13.74;70.81
29359;BME280;16347;53.232;6.556;2023-04-01T04:13:42;99281.91;;;13.75;70.71
29359;BME280;16347;53.232;6.556;2023-04-01T04:16:11;99297.47;;;13.74;70.75
29359;BME280;16347;53.232;6.556;2023-04-01T04:18:45;99289.50;;;13.73;70.74
29359;BME280;16347;53.232;6.556;2023-04-01T04:21:14;99298.50;;;13.73;70.41
29359;BME280;16347;53.232;6.556;2023-04-01T04:23:43;99303.34;;;13.71;70.90
29359;BME280;16347;53.232;6.556;2023-04-01T04:26:15;99301.91;;;13.69;71.08
29359;BME280;16347;53.232;6.556;2023-04-01T04:28:49;99294.56;;;13.69;71.01
29359;BME280;16347;53.232;6.556;2023-04-01T04:31:19;99307.81;;;13.66;71.12
29359;BME280;16347;53.232;6.556;2023-04-01T04:33:50;99302.09;;;13.67;71.22
29359;BME280;16347;53.232;6.556;2023-04-01T04:36:19;99313.88;;;13.68;71.31
29359;BME280;16347;53.232;6.556;2023-04-01T04:38:50;99322.06;;;13.68;71.01
29359;BME280;16347;53.232;6.556;2023-04-01T04:41:18;99323.78;;;13.62;71.05
29359;BME280;16347;53.232;6.556;2023-04-01T04:43:51;99315.59;;;13.56;71.25
29359;BME280;16347;53.232;6.556;2023-04-01T04:46:19;99324.44;;;13.51;71.51
29359;BME280;16347;53.232;6.556;2023-04-01T04:48:53;99334.28;;;13.59;71.31
29359;BME280;16347;53.232;6.556;2023-04-01T04:51:22;99332.84;;;13.56;71.66
29359;BME280;16347;53.232;6.556;2023-04-01T04:53:51;99339.97;;;13.57;71.44
29359;BME280;16347;53.232;6.556;2023-04-01T04:56:27;99337.63;;;13.61;71.72
29359;BME280;16347;53.232;6.556;2023-04-01T04:59:06;99339.94;;;13.64;71.69
29359;BME280;16347;53.232;6.556;2023-04-01T05:01:47;99346.09;;;13.53;71.49
29359;BME280;16347;53.232;6.556;2023-04-01T05:04:17;99350.47;;;13.54;72.01
29359;BME280;16347;53.232;6.556;2023-04-01T05:06:46;99351.53;;;13.59;71.49
29359;BME280;16347;53.232;6.556;2023-04-01T05:09:16;99349.81;;;13.65;71.87
29359;BME280;16347;53.232;6.556;2023-04-01T05:11:44;99353.56;;;13.70;72.02
29359;BME280;16347;53.232;6.556;2023-04-01T05:14:13;99359.91;;;13.58;71.55
29359;BME280;16347;53.232;6.556;2023-04-01T05:16:46;99361.34;;;13.67;71.38
29359;BME280;16347;53.232;6.556;2023-04-01T05:19:17;99359.69;;;13.66;71.43
29359;BME280;16347;53.232;6.556;2023-04-01T05:21:46;99365.78;;;13.68;71.49
29359;BME280;16347;53.232;6.556;2023-04-01T05:24:15;99358.63;;;13.67;71.48
29359;BME280;16347;53.232;6.556;2023-04-01T05:26:44;99368.72;;;13.66;71.71
29359;BME280;16347;53.232;6.556;2023-04-01T05:29:12;99366.63;;;13.68;71.79
29359;BME280;16347;53.232;6.556;2023-04-01T05:31:41;99377.56;;;13.62;71.25
29359;BME280;16347;53.232;6.556;2023-04-01T05:34:09;99381.34;;;13.61;71.46
29359;BME280;16347;53.232;6.556;2023-04-01T05:36:40;99381.56;;;13.59;71.66
29359;BME280;16347;53.232;6.556;2023-04-01T05:39:08;99386.78;;;13.61;71.71
29359;BME280;16347;53.232;6.556;2023-04-01T05:41:37;99395.84;;;13.55;71.68
29359;BME280;16347;53.232;6.556;2023-04-01T05:44:07;99396.47;;;13.57;71.72
29359;BME280;16347;53.232;6.556;2023-04-01T05:46:41;99401.50;;;13.53;71.83
29359;BME280;16347;53.232;6.556;2023-04-01T05:49:19;99406.16;;;13.59;71.44
29359;BME280;16347;53.232;6.556;2023-04-01T05:51:50;99415.19;;;13.40;71.75
29359;BME280;16347;53.232;6.556;2023-04-01T05:54:19;99414.13;;;13.54;71.96
29359;BME280;16347;53.232;6.556;2023-04-01T05:56:47;99420.00;;;13.58;71.94
29359;BME280;16347;53.232;6.556;2023-04-01T05:59:17;99417.88;;;13.60;71.95
29359;BME280;16347;53.232;6.556;2023-04-01T06:01:46;99420.84;;;13.58;71.99
29359;BME280;16347;53.232;6.556;2023-04-01T06:04:16;99429.44;;;13.62;71.74
29359;BME280;16347;53.232;6.556;2023-04-01T06:06:45;99417.69;;;13.61;71.88
29359;BME280;16347;53.232;6.556;2023-04-01T06:09:16;99430.06;;;13.64;71.87
29359;BME280;16347;53.232;6.556;2023-04-01T06:12:12;99428.41;;;13.56;72.31
29359;BME280;16347;53.232;6.556;2023-04-01T06:14:55;99437.22;;;13.58;72.28
29359;BME280;16347;53.232;6.556;2023-04-01T06:17:32;99444.16;;;13.61;72.23
29359;BME280;16347;53.232;6.556;2023-04-01T06:20:11;99443.53;;;13.59;72.19
29359;BME280;16347;53.232;6.556;2023-04-01T06:22:53;99450.47;;;13.61;72.41
29359;BME280;16347;53.232;6.556;2023-04-01T06:25:49;99446.69;;;13.62;72.33
29359;BME280;16347;53.232;6.556;2023-04-01T06:31:39;99463.69;;;13.71;72.61
29359;BME280;16347;53.232;6.556;2023-04-01T06:34:24;99464.31;;;13.73;72.26
29359;BME280;16347;53.232;6.556;2023-04-01T06:37:14;99472.53;;;13.73;72.31
29359;BME280;16347;53.232;6.556;2023-04-01T06:40:03;99476.91;;;13.74;72.33
29359;BME280;16347;53.232;6.556;2023-04-01T06:42:50;99475.66;;;13.63;72.34
29359;BME280;16347;53.232;6.556;2023-04-01T06:45:43;99480.94;;;13.58;72.20
29359;BME280;16347;53.232;6.556;2023-04-01T06:48:53;99487.41;;;13.64;72.42
29359;BME280;16347;53.232;6.556;2023-04-01T06:51:48;99494.16;;;13.68;72.78
29359;BME280;16347;53.232;6.556;2023-04-01T06:54:39;99498.75;;;13.74;72.23
29359;BME280;16347;53.232;6.556;2023-04-01T06:57:31;99498.34;;;13.70;72.15
29359;BME280;16347;53.232;6.556;2023-04-01T07:00:05;99502.34;;;13.74;72.10
29359;BME280;16347;53.232;6.556;2023-04-01T07:02:44;99499.84;;;13.73;72.06
29359;BME280;16347;53.232;6.556;2023-04-01T07:05:22;99502.13;;;13.76;71.87
29359;BME280;16347;53.232;6.556;2023-04-01T07:07:54;99504.63;;;13.77;71.81
29359;BME280;16347;53.232;6.556;2023-04-01T07:10:33;99505.47;;;13.78;71.83
29359;BME280;16347;53.232;6.556;2023-04-01T07:13:25;99516.00;;;13.74;71.69
29359;BME280;16347;53.232;6.556;2023-04-01T07:16:07;99518.09;;;13.72;71.93
29359;BME280;16347;53.232;6.556;2023-04-01T07:18:42;99521.69;;;13.73;71.94
29359;BME280;16347;53.232;6.556;2023-04-01T07:21:22;99529.47;;;13.76;72.13
29359;BME280;16347;53.232;6.556;2023-04-01T07:23:54;99534.69;;;13.77;72.23
29359;BME280;16347;53.232;6.556;2023-04-01T07:26:34;99540.16;;;13.84;72.40
29359;BME280;16347;53.232;6.556;2023-04-01T07:29:09;99540.16;;;13.84;72.25
29359;BME280;16347;53.232;6.556;2023-04-01T07:32:08;99542.03;;;13.90;72.20
29359;BME280;16347;53.232;6.556;2023-04-01T07:34:44;99546.69;;;13.83;71.98
29359;BME280;16347;53.232;6.556;2023-04-01T07:37:20;99559.94;;;13.86;72.17
29359;BME280;16347;53.232;6.556;2023-04-01T07:39:55;99551.50;;;13.87;72.50
29359;BME280;16347;53.232;6.556;2023-04-01T07:42:44;99556.75;;;13.89;72.15
29359;BME280;16347;53.232;6.556;2023-04-01T07:45:23;99561.38;;;13.95;72.37
29359;BME280;16347;53.232;6.556;2023-04-01T07:48:14;99566.41;;;13.98;72.34
29359;BME280;16347;53.232;6.556;2023-04-01T07:50:50;99574.00;;;13.96;72.04
29359;BME280;16347;53.232;6.556;2023-04-01T07:53:28;99571.88;;;13.98;71.96
29359;BME280;16347;53.232;6.556;2023-04-01T07:56:06;99581.97;;;14.04;72.13
29359;BME280;16347;53.232;6.556;2023-04-01T07:58:51;99581.13;;;14.04;71.68
29359;BME280;16347;53.232;6.556;2023-04-01T08:01:49;99591.00;;;14.05;71.32
29359;BME280;16347;53.232;6.556;2023-04-01T08:04:29;99597.34;;;13.92;71.46
29359;BME280;16347;53.232;6.556;2023-04-01T08:07:08;99605.09;;;13.82;71.31
29359;BME280;16347;53.232;6.556;2023-04-01T08:09:48;99603.22;;;13.89;71.55
29359;BME280;16347;53.232;6.556;2023-04-01T08:12:50;99605.94;;;13.96;71.44
29359;BME280;16347;53.232;6.556;2023-04-01T08:15:46;99611.00;;;13.99;71.46
29359;BME280;16347;53.232;6.556;2023-04-01T08:18:52;99618.56;;;13.97;71.43
29359;BME280;16347;53.232;6.556;2023-04-01T08:21:28;99619.19;;;14.05;71.61
29359;BME280;16347;53.232;6.556;2023-04-01T08:23:59;99621.06;;;13.98;71.14
29359;BME280;16347;53.232;6.556;2023-04-01T08:26:36;99622.97;;;14.04;71.32
29359;BME280;16347;53.232;6.556;2023-04-01T08:29:12;99624.22;;;14.02;70.97
29359;BME280;16347;53.232;6.556;2023-04-01T08:31:45;99623.38;;;14.01;71.12
29359;BME280;16347;53.232;6.556;2023-04-01T08:34:21;99628.00;;;14.07;70.62
29359;BME280;16347;53.232;6.556;2023-04-01T08:36:57;99628.00;;;13.94;70.96
29359;BME280;16347;53.232;6.556;2023-04-01T08:39:30;99633.28;;;13.82;71.07
29359;BME280;16347;53.232;6.556;2023-04-01T08:45:43;99646.94;;;14.02;71.27
29359;BME280;16347;53.232;6.556;2023-04-01T08:51:53;99669.22;;;13.79;71.14
29359;BME280;16347;53.232;6.556;2023-04-01T08:54:42;99669.97;;;13.54;70.93
29359;BME280;16347;53.232;6.556;2023-04-01T08:57:31;99678.97;;;13.41;70.74
29359;BME280;16347;53.232;6.556;2023-04-01T09:00:31;99687.59;;;13.45;70.99
29359;BME280;16347;53.232;6.556;2023-04-01T09:03:33;99691.38;;;13.44;71.15
29359;BME280;16347;53.232;6.556;2023-04-01T09:06:22;99694.69;;;13.26;71.38
29359;BME280;16347;53.232;6.556;2023-04-01T09:12:07;99710.94;;;13.06;71.38
29359;BME280;16347;53.232;6.556;2023-04-01T09:14:58;99711.75;;;13.00;71.60
29359;BME280;16347;53.232;6.556;2023-04-01T09:18:12;99721.50;;;13.09;72.11
29359;BME280;16347;53.232;6.556;2023-04-01T09:20:53;99719.69;;;12.95;72.26
29359;BME280;16347;53.232;6.556;2023-04-01T09:26:48;99737.75;;;13.30;71.69
29359;BME280;16347;53.232;6.556;2023-04-01T09:29:48;99726.34;;;13.20;70.67
29359;BME280;16347;53.232;6.556;2023-04-01T09:35:25;99750.69;;;13.15;70.25
29359;BME280;16347;53.232;6.556;2023-04-01T09:38:06;99751.16;;;13.19;70.27
29359;BME280;16347;53.232;6.556;2023-04-01T09:40:48;99760.34;;;13.11;70.33
29359;BME280;16347;53.232;6.556;2023-04-01T09:43:39;99764.75;;;13.12;70.13
29359;BME280;16347;53.232;6.556;2023-04-01T09:46:23;99766.16;;;13.08;69.92
29359;BME280;16347;53.232;6.556;2023-04-01T09:49:37;99764.78;;;13.19;69.61
29359;BME280;16347;53.232;6.556;2023-04-01T09:52:20;99769.94;;;13.07;69.38
29359;BME280;16347;53.232;6.556;2023-04-01T09:55:19;99781.22;;;12.98;70.19
29359;BME280;16347;53.232;6.556;2023-04-01T10:02:02;99801.75;;;12.94;69.70
29359;BME280;16347;53.232;6.556;2023-04-01T10:08:03;99800.41;;;12.83;69.78
29359;BME280;16347;53.232;6.556;2023-04-01T10:11:04;99806.75;;;12.90;69.54
29359;BME280;16347;53.232;6.556;2023-04-01T10:14:16;99812.78;;;12.79;70.10
29359;BME280;16347;53.232;6.556;2023-04-01T10:17:32;99820.91;;;12.72;69.90
29359;BME280;16347;53.232;6.556;2023-04-01T10:20:21;99820.50;;;12.75;70.00
29359;BME280;16347;53.232;6.556;2023-04-01T10:23:04;99823.22;;;12.75;70.18
29359;BME280;16347;53.232;6.556;2023-04-01T10:26:06;99828.47;;;12.77;70.17
29359;BME280;16347;53.232;6.556;2023-04-01T10:29:02;99840.81;;;12.73;69.73
29359;BME280;16347;53.232;6.556;2023-04-01T10:32:17;99845.44;;;12.72;70.17
29359;BME280;16347;53.232;6.556;2023-04-01T10:35:06;99849.91;;;12.80;70.49
29359;BME280;16347;53.232;6.556;2023-04-01T10:38:02;99842.38;;;12.82;69.34
29359;BME280;16347;53.232;6.556;2023-04-01T10:40:47;99850.16;;;12.85;68.98
29359;BME280;16347;53.232;6.556;2023-04-01T10:44:06;99856.78;;;12.76;68.64
29359;BME280;16347;53.232;6.556;2023-04-01T10:47:15;99863.38;;;12.60;69.13
29359;BME280;16347;53.232;6.556;2023-04-01T10:56:20;99878.88;;;12.81;68.58
29359;BME280;16347;53.232;6.556;2023-04-01T11:07:10;99884.63;;;12.65;68.45
29359;BME280;16347;53.232;6.556;2023-04-01T11:10:14;99894.28;;;12.67;68.53
29359;BME280;16347;53.232;6.556;2023-04-01T11:13:18;99897.06;;;12.74;68.51
29359;BME280;16347;53.232;6.556;2023-04-01T11:22:23;99910.75;;;12.80;68.71
29359;BME280;16347;53.232;6.556;2023-04-01T11:25:25;99910.19;;;12.85;68.42
29359;BME280;16347;53.232;6.556;2023-04-01T11:28:53;99922.91;;;12.78;68.21
29359;BME280;16347;53.232;6.556;2023-04-01T11:31:45;99925.38;;;12.73;68.08
29359;BME280;16347;53.232;6.556;2023-04-01T11:34:43;99929.16;;;12.72;67.99
29359;BME280;16347;53.232;6.556;2023-04-01T11:37:29;99931.88;;;12.72;68.18
29359;BME280;16347;53.232;6.556;2023-04-01T11:40:28;99934.88;;;12.77;67.92
29359;BME280;16347;53.232;6.556;2023-04-01T11:43:31;99942.97;;;12.70;67.86
29359;BME280;16347;53.232;6.556;2023-04-01T11:46:28;99948.25;;;12.72;67.20
29359;BME280;16347;53.232;6.556;2023-04-01T11:49:07;99946.50;;;12.85;67.74
29359;BME280;16347;53.232;6.556;2023-04-01T11:52:04;99961.63;;;12.88;68.13
29359;BME280;16347;53.232;6.556;2023-04-01T11:54:50;99955.50;;;13.07;68.16
29359;BME280;16347;53.232;6.556;2023-04-01T11:57:44;99969.06;;;13.15;68.16
29359;BME280;16347;53.232;6.556;2023-04-01T12:00:35;99970.72;;;13.16;67.94
29359;BME280;16347;53.232;6.556;2023-04-01T12:03:20;99982.16;;;13.05;66.37
29359;BME280;16347;53.232;6.556;2023-04-01T12:05:50;99992.50;;;13.31;65.76
29359;BME280;16347;53.232;6.556;2023-04-01T12:08:29;99992.50;;;13.10;66.41
29359;BME280;16347;53.232;6.556;2023-04-01T12:11:07;100000.75;;;13.16;66.54
29359;BME280;16347;53.232;6.556;2023-04-01T12:13:49;100000.69;;;13.10;65.92
29359;BME280;16347;53.232;6.556;2023-04-01T12:16:43;100009.16;;;13.15;66.04
29359;BME280;16347;53.232;6.556;2023-04-01T12:19:19;100011.44;;;13.11;66.04
29359;BME280;16347;53.232;6.556;2023-04-01T12:22:03;100013.59;;;13.16;66.18
29359;BME280;16347;53.232;6.556;2023-04-01T12:24:45;100023.25;;;13.18;65.25
29359;BME280;16347;53.232;6.556;2023-04-01T12:27:38;100027.34;;;12.93;65.54
29359;BME280;16347;53.232;6.556;2023-04-01T12:30:34;100030.75;;;12.95;66.18
29359;BME280;16347;53.232;6.556;2023-04-01T12:33:25;100033.94;;;12.99;65.97
29359;BME280;16347;53.232;6.556;2023-04-01T12:36:05;100042.38;;;12.82;66.43
29359;BME280;16347;53.232;6.556;2023-04-01T12:38:44;100043.16;;;12.98;65.53
29359;BME280;16347;53.232;6.556;2023-04-01T12:41:24;100051.75;;;12.95;66.00
29359;BME280;16347;53.232;6.556;2023-04-01T12:44:13;100056.31;;;12.73;65.36
29359;BME280;16347;53.232;6.556;2023-04-01T12:47:16;100061.56;;;12.89;65.84
29359;BME280;16347;53.232;6.556;2023-04-01T12:49:56;100063.22;;;12.90;65.59
29359;BME280;16347;53.232;6.556;2023-04-01T12:52:39;100064.91;;;12.91;65.34
29359;BME280;16347;53.232;6.556;2023-04-01T12:55:25;100068.75;;;12.97;65.81
29359;BME280;16347;53.232;6.556;2023-04-01T12:58:41;100069.44;;;12.84;66.83
29359;BME280;16347;53.232;6.556;2023-04-01T13:01:28;100084.78;;;12.85;66.30
29359;BME280;16347;53.232;6.556;2023-04-01T13:07:13;100090.94;;;12.72;65.67
29359;BME280;16347;53.232;6.556;2023-04-01T13:09:51;100090.47;;;12.69;65.88
29359;BME280;16347;53.232;6.556;2023-04-01T13:12:34;100099.78;;;12.74;65.18
29359;BME280;16347;53.232;6.556;2023-04-01T13:15:20;100111.69;;;12.88;65.42
29359;BME280;16347;53.232;6.556;2023-04-01T13:17:58;100110.84;;;12.88;64.65
29359;BME280;16347;53.232;6.556;2023-04-01T13:20:43;100126.75;;;12.84;64.52
29359;BME280;16347;53.232;6.556;2023-04-01T13:23:36;100116.78;;;12.76;64.81
29359;BME280;16347;53.232;6.556;2023-04-01T13:26:13;100129.13;;;12.72;65.04
29359;BME280;16347;53.232;6.556;2023-04-01T13:28:50;100134.84;;;12.63;64.78
29359;BME280;16347;53.232;6.556;2023-04-01T13:31:47;100137.66;;;12.69;65.29
29359;BME280;16347;53.232;6.556;2023-04-01T13:34:30;100138.97;;;12.73;65.61
29359;BME280;16347;53.232;6.556;2023-04-01T13:37:15;100151.22;;;12.92;65.40
29359;BME280;16347;53.232;6.556;2023-04-01T13:40:11;100154.66;;;13.01;64.56
29359;BME280;16347;53.232;6.556;2023-04-01T13:42:43;100153.72;;;13.08;63.36
29359;BME280;16347;53.232;6.556;2023-04-01T13:45:16;100153.00;;;12.70;64.47
29359;BME280;16347;53.232;6.556;2023-04-01T13:47:59;100168.34;;;12.71;64.53
29359;BME280;16347;53.232;6.556;2023-04-01T13:50:51;100169.75;;;12.82;64.25
29359;BME280;16347;53.232;6.556;2023-04-01T13:56:32;100174.06;;;12.47;63.59
29359;BME280;16347;53.232;6.556;2023-04-01T13:59:10;100185.00;;;12.62;63.59
29359;BME280;16347;53.232;6.556;2023-04-01T14:01:48;100178.50;;;12.48;63.15
29359;BME280;16347;53.232;6.556;2023-04-01T14:04:34;100188.00;;;12.67;63.40
29359;BME280;16347;53.232;6.556;2023-04-01T14:07:21;100203.63;;;12.58;63.43
29359;BME280;16347;53.232;6.556;2023-04-01T14:10:04;100202.47;;;12.38;64.31
29359;BME280;16347;53.232;6.556;2023-04-01T14:12:40;100213.56;;;12.51;64.47
29359;BME280;16347;53.232;6.556;2023-04-01T14:15:23;100213.84;;;12.56;63.55
29359;BME280;16347;53.232;6.556;2023-04-01T14:18:13;100226.66;;;12.70;63.54
29359;BME280;16347;53.232;6.556;2023-04-01T14:20:48;100228.53;;;12.70;63.35
29359;BME280;16347;53.232;6.556;2023-04-01T14:29:37;100242.78;;;12.43;63.38
29359;BME280;16347;53.232;6.556;2023-04-01T14:32:13;100245.22;;;12.38;63.34
29359;BME280;16347;53.232;6.556;2023-04-01T14:34:52;100261.22;;;12.41;63.00
29359;BME280;16347;53.232;6.556;2023-04-01T14:37:55;100259.94;;;12.51;63.44
29359;BME280;16347;53.232;6.556;2023-04-01T14:40:28;100267.63;;;12.48;63.42
29359;BME280;16347;53.232;6.556;2023-04-01T14:43:14;100281.91;;;12.50;63.22
29359;BME280;16347;53.232;6.556;2023-04-01T14:46:11;100287.78;;;12.24;62.85
29359;BME280;16347;53.232;6.556;2023-04-01T14:48:51;100290.38;;;12.17;62.83
29359;BME280;16347;53.232;6.556;2023-04-01T14:51:23;100296.94;;;12.08;63.15
29359;BME280;16347;53.232;6.556;2023-04-01T14:54:02;100307.72;;;12.24;62.95
29359;BME280;16347;53.232;6.556;2023-04-01T14:56:37;100301.34;;;12.32;62.17
29359;BME280;16347;53.232;6.556;2023-04-01T14:59:09;100312.72;;;12.35;62.59
29359;BME280;16347;53.232;6.556;2023-04-01T15:01:45;100317.41;;;12.27;62.36
29359;BME280;16347;53.232;6.556;2023-04-01T15:04:30;100318.84;;;12.38;62.67